createdAt,value
2022-11-01T00:01:57.433Z,89.99
2022-11-01T00:04:25.814Z,89.98
2022-11-01T00:06:53.917Z,90.01
2022-11-01T00:09:21.907Z,90.10
2022-11-01T00:11:50.096Z,89.90
2022-11-01T00:14:20.231Z,90.21
2022-11-01T00:16:49.756Z,90.22
2022-11-01T00:19:17.924Z,90.28
2022-11-01T00:21:46.199Z,90.23
2022-11-01T00:24:14.243Z,90.04
2022-11-01T00:26:42.278Z,90.33
2022-11-01T00:29:10.527Z,90.32
2022-11-01T00:31:38.523Z,89.85
2022-11-01T00:34:07.995Z,90.25
2022-11-01T00:36:37.093Z,89.97
2022-11-01T00:39:05.511Z,90.19
2022-11-01T00:41:33.566Z,90.15
2022-11-01T00:44:01.844Z,90.62
2022-11-01T00:46:32.522Z,90.43
2022-11-01T00:49:00.618Z,90.48
2022-11-01T00:51:30.015Z,90.06
2022-11-01T00:53:58.010Z,90.45
2022-11-01T00:56:26.026Z,90.39
2022-11-01T00:58:54.053Z,90.47
2022-11-01T01:01:22.123Z,90.35
2022-11-01T01:03:50.246Z,90.30
2022-11-01T01:06:18.277Z,90.24
2022-11-01T01:08:47.675Z,90.43
2022-11-01T01:11:15.828Z,90.23
2022-11-01T01:13:43.905Z,90.35
2022-11-01T01:16:13.422Z,90.05
2022-11-01T01:18:41.522Z,90.23
2022-11-01T01:21:10.058Z,90.33
2022-11-01T01:23:38.173Z,90.38
2022-11-01T01:26:08.836Z,90.38
2022-11-01T01:28:41.788Z,90.13
2022-11-01T01:31:14.151Z,90.49
2022-11-01T01:33:42.376Z,90.02
2022-11-01T01:36:10.648Z,89.91
2022-11-01T01:38:38.815Z,90.15
2022-11-01T01:41:25.880Z,90.27
2022-11-01T01:43:54.305Z,90.94
2022-11-01T01:46:22.353Z,90.72
2022-11-01T01:48:54.419Z,90.60
2022-11-01T01:51:25.960Z,90.33
2022-11-01T01:53:55.894Z,90.52
2022-11-01T01:56:29.715Z,90.35
2022-11-01T01:59:02.429Z,90.40
2022-11-01T02:01:30.865Z,90.29
2022-11-01T02:03:59.037Z,90.69
2022-11-01T02:06:27.379Z,90.37
2022-11-01T02:08:57.677Z,90.42
2022-11-01T02:11:27.024Z,90.53
2022-11-01T02:13:55.212Z,90.34
2022-11-01T02:16:46.618Z,90.33
2022-11-01T02:19:52.298Z,90.38
2022-11-01T02:22:29.483Z,90.40
2022-11-01T02:25:33.648Z,90.51
2022-11-01T02:28:16.947Z,90.37
2022-11-01T02:30:47.635Z,90.30
2022-11-01T02:33:25.297Z,90.31
2022-11-01T02:35:59.227Z,90.20
2022-11-01T02:38:30.535Z,90.41
2022-11-01T02:41:07.511Z,90.43
2022-11-01T02:43:45.379Z,90.32
2022-11-01T02:46:31.134Z,90.54
2022-11-01T02:49:00.540Z,90.46
2022-11-01T02:51:29.365Z,90.57
2022-11-01T02:53:57.365Z,90.55
2022-11-01T02:56:25.476Z,90.23
2022-11-01T02:58:53.758Z,90.68
2022-11-01T03:01:25.485Z,90.66
2022-11-01T03:03:54.564Z,90.55
2022-11-01T03:06:26.002Z,90.51
2022-11-01T03:08:57.682Z,90.29
2022-11-01T03:11:28.434Z,90.21
2022-11-01T03:14:01.669Z,90.54
2022-11-01T03:16:32.435Z,90.65
2022-11-01T03:19:13.574Z,90.33
2022-11-01T03:21:48.906Z,90.91
2022-11-01T03:24:24.005Z,90.63
2022-11-01T03:26:59.894Z,90.36
2022-11-01T03:29:30.286Z,90.37
2022-11-01T03:31:59.754Z,90.56
2022-11-01T03:34:27.768Z,90.74
2022-11-01T03:37:01.188Z,90.76
2022-11-01T03:39:32.737Z,90.32
2022-11-01T03:42:04.829Z,90.75
2022-11-01T03:44:35.469Z,90.50
2022-11-01T03:47:03.729Z,90.75
2022-11-01T03:49:31.742Z,90.73
2022-11-01T03:52:01.109Z,90.33
2022-11-01T03:54:29.222Z,90.62
2022-11-01T03:56:57.317Z,90.72
2022-11-01T03:59:26.597Z,90.73
2022-11-01T04:01:54.793Z,90.53
2022-11-01T04:04:23.847Z,90.44
2022-11-01T04:06:52.282Z,90.53
2022-11-01T04:09:21.607Z,90.43
2022-11-01T04:11:49.634Z,90.38
2022-11-01T04:14:34.981Z,90.64
2022-11-01T04:17:19.843Z,90.50
2022-11-01T04:20:05.467Z,90.95
2022-11-01T04:22:33.603Z,90.45
2022-11-01T04:25:02.998Z,90.54
2022-11-01T04:27:31.031Z,90.72
2022-11-01T04:29:59.056Z,90.69
2022-11-01T04:32:27.046Z,90.83
2022-11-01T04:34:55.080Z,90.52
2022-11-01T04:37:23.100Z,90.54
2022-11-01T04:39:51.112Z,90.43
2022-11-01T04:42:20.454Z,90.94
2022-11-01T04:44:49.480Z,90.60
2022-11-01T04:47:17.520Z,90.36
2022-11-01T04:49:45.496Z,90.39
2022-11-01T04:52:13.560Z,90.50
2022-11-01T04:54:41.569Z,90.35
2022-11-01T04:57:22.917Z,90.53
2022-11-01T04:59:53.158Z,90.80
2022-11-01T05:02:22.397Z,90.50
2022-11-01T05:04:50.520Z,90.57
2022-11-01T05:07:18.540Z,90.58
2022-11-01T05:09:46.533Z,90.53
2022-11-01T05:12:14.541Z,90.68
2022-11-01T05:14:42.553Z,90.83
2022-11-01T05:17:11.903Z,90.40
2022-11-01T05:19:39.893Z,90.63
2022-11-01T05:22:07.911Z,90.50
2022-11-01T05:24:35.991Z,90.32
2022-11-01T05:27:04.494Z,90.41
2022-11-01T05:29:33.452Z,90.75
2022-11-01T05:32:01.948Z,90.83
2022-11-01T05:34:31.363Z,90.57
2022-11-01T05:36:59.395Z,90.27
2022-11-01T05:39:27.385Z,90.56
2022-11-01T05:41:58.255Z,90.46
2022-11-01T05:44:29.733Z,90.33
2022-11-01T05:46:57.730Z,90.38
2022-11-01T05:49:25.730Z,90.31
2022-11-01T05:51:55.094Z,90.44
2022-11-01T05:54:23.125Z,90.48
2022-11-01T05:56:51.150Z,90.45
2022-11-01T05:59:19.173Z,90.61
2022-11-01T06:01:47.305Z,90.50
2022-11-01T06:04:15.383Z,90.35
2022-11-01T06:06:43.414Z,90.54
2022-11-01T06:09:12.850Z,90.60
2022-11-01T06:11:41.983Z,90.99
2022-11-01T06:14:11.476Z,90.58
2022-11-01T06:16:39.525Z,90.75
2022-11-01T06:19:07.532Z,90.93
2022-11-01T06:21:35.571Z,90.71
2022-11-01T06:24:03.602Z,90.96
2022-11-01T06:26:35.514Z,90.88
2022-11-01T06:29:03.675Z,90.95
2022-11-01T06:31:31.776Z,90.88
2022-11-01T06:33:59.799Z,90.63
2022-11-01T06:36:27.791Z,90.49
2022-11-01T06:38:55.807Z,90.82
2022-11-01T06:41:23.871Z,90.72
2022-11-01T06:43:53.257Z,90.66
2022-11-01T06:46:21.317Z,90.71
2022-11-01T06:48:49.794Z,90.58
2022-11-01T06:51:17.900Z,90.81
2022-11-01T06:53:45.925Z,90.72
2022-11-01T06:56:13.927Z,90.59
2022-11-01T06:58:41.949Z,90.94
2022-11-01T07:01:11.429Z,90.47
2022-11-01T07:03:39.490Z,90.55
2022-11-01T07:06:07.544Z,90.41
2022-11-01T07:08:35.551Z,90.29
2022-11-01T07:11:03.538Z,90.41
2022-11-01T07:13:33.930Z,90.35
2022-11-01T07:16:04.067Z,90.46
2022-11-01T07:18:34.557Z,90.65
2022-11-01T07:21:03.414Z,90.75
2022-11-01T07:23:32.010Z,90.55
2022-11-01T07:26:00.083Z,90.65
2022-11-01T07:28:28.118Z,90.29
2022-11-01T07:30:56.663Z,90.58
2022-11-01T07:33:24.704Z,90.44
2022-11-01T07:35:54.143Z,90.46
2022-11-01T07:38:22.392Z,90.57
2022-11-01T07:40:52.341Z,90.48
2022-11-01T07:43:20.406Z,90.37
2022-11-01T07:45:49.026Z,90.48
2022-11-01T07:48:18.718Z,90.31
2022-11-01T07:50:47.075Z,90.31
2022-11-01T07:53:18.324Z,90.34
2022-11-01T07:55:47.510Z,89.97
2022-11-01T07:58:16.816Z,90.23
2022-11-01T08:00:45.572Z,90.23
2022-11-01T08:03:15.253Z,90.15
2022-11-01T08:05:43.849Z,90.09
2022-11-01T08:08:12.059Z,90.14
2022-11-01T08:10:42.288Z,90.15
2022-11-01T08:13:16.200Z,89.98
2022-11-01T08:15:44.435Z,90.42
2022-11-01T08:18:12.795Z,90.31
2022-11-01T08:20:41.587Z,90.10
2022-11-01T08:23:09.765Z,90.38
2022-11-01T08:25:37.976Z,90.06
2022-11-01T08:28:09.615Z,89.98
2022-11-01T08:30:39.126Z,90.21
2022-11-01T08:33:07.505Z,89.81
2022-11-01T08:35:36.201Z,89.92
2022-11-01T08:38:04.616Z,90.18
2022-11-01T08:40:34.058Z,89.67
2022-11-01T08:43:02.733Z,89.71
2022-11-01T08:45:32.447Z,89.57
2022-11-01T08:48:01.517Z,89.52
2022-11-01T08:50:29.673Z,89.42
2022-11-01T08:52:57.736Z,89.34
2022-11-01T08:55:26.350Z,89.36
2022-11-01T08:57:54.448Z,89.58
2022-11-01T09:00:22.642Z,89.44
2022-11-01T09:02:52.273Z,88.96
2022-11-01T09:05:20.281Z,88.91
2022-11-01T09:07:48.846Z,88.75
2022-11-01T09:10:17.668Z,88.81
2022-11-01T09:12:45.727Z,88.96
2022-11-01T09:15:13.741Z,88.80
2022-11-01T09:17:41.733Z,88.76
2022-11-01T09:20:11.585Z,88.68
2022-11-01T09:22:39.614Z,88.84
2022-11-01T09:25:08.609Z,88.68
2022-11-01T09:27:36.610Z,88.37
2022-11-01T09:30:04.931Z,88.38
2022-11-01T09:32:32.947Z,88.18
2022-11-01T09:35:00.992Z,87.89
2022-11-01T09:37:30.393Z,87.84
2022-11-01T09:39:58.463Z,87.35
2022-11-01T09:42:32.472Z,87.53
2022-11-01T09:45:04.942Z,87.19
2022-11-01T09:47:34.107Z,86.77
2022-11-01T09:50:08.283Z,86.45
2022-11-01T09:52:37.678Z,85.94
2022-11-01T09:55:10.768Z,85.75
2022-11-01T09:57:45.654Z,85.12
2022-11-01T10:00:16.108Z,84.81
2022-11-01T10:03:14.847Z,85.09
2022-11-01T10:05:49.291Z,84.67
2022-11-01T10:08:29.829Z,84.61
2022-11-01T10:11:08.408Z,84.92
2022-11-01T10:13:45.699Z,84.96
2022-11-01T10:16:18.475Z,85.29
2022-11-01T10:18:52.565Z,85.23
2022-11-01T10:21:24.596Z,85.00
2022-11-01T10:23:57.259Z,84.99
2022-11-01T10:26:28.302Z,84.97
2022-11-01T10:29:02.211Z,85.28
2022-11-01T10:31:30.930Z,85.10
2022-11-01T10:34:03.105Z,85.13
2022-11-01T10:36:35.408Z,85.08
2022-11-01T10:42:09.223Z,85.04
2022-11-01T10:44:41.270Z,84.95
2022-11-01T10:47:14.702Z,85.01
2022-11-01T10:50:04.885Z,85.03
2022-11-01T10:52:42.406Z,84.66
2022-11-01T10:55:16.719Z,84.81
2022-11-01T10:57:49.376Z,84.31
2022-11-01T11:00:20.141Z,83.79
2022-11-01T11:02:50.459Z,82.83
2022-11-01T11:05:19.166Z,82.39
2022-11-01T11:07:47.410Z,81.61
2022-11-01T11:10:24.369Z,82.43
2022-11-01T11:12:57.329Z,81.49
2022-11-01T11:15:35.606Z,81.31
2022-11-01T11:18:05.151Z,80.05
2022-11-01T11:20:34.821Z,80.38
2022-11-01T11:23:03.636Z,80.89
2022-11-01T11:25:37.666Z,80.00
2022-11-01T11:28:06.609Z,80.38
2022-11-01T11:30:36.320Z,80.54
2022-11-01T11:33:04.699Z,80.68
2022-11-01T11:35:33.630Z,80.54
2022-11-01T11:38:04.212Z,79.82
2022-11-01T11:40:43.847Z,80.04
2022-11-01T11:43:23.399Z,79.87
2022-11-01T11:46:04.882Z,80.35
2022-11-01T11:48:33.506Z,80.22
2022-11-01T11:51:03.092Z,79.68
2022-11-01T11:53:32.392Z,79.34
2022-11-01T11:56:03.690Z,79.92
2022-11-01T11:58:35.704Z,80.23
2022-11-01T12:01:06.263Z,80.27
2022-11-01T12:03:39.455Z,78.79
2022-11-01T12:06:09.663Z,79.01
2022-11-01T12:08:45.358Z,78.85
2022-11-01T12:11:15.581Z,79.78
2022-11-01T12:13:45.644Z,79.11
2022-11-01T12:16:20.358Z,78.95
2022-11-01T12:18:50.887Z,78.94
2022-11-01T12:21:22.271Z,79.61
2022-11-01T12:23:52.370Z,79.47
2022-11-01T12:26:23.527Z,79.47
2022-11-01T12:28:59.631Z,79.49
2022-11-01T12:31:31.481Z,79.48
2022-11-01T12:34:06.534Z,80.38
2022-11-01T12:36:42.873Z,79.33
2022-11-01T12:39:20.207Z,79.17
2022-11-01T12:41:53.768Z,78.84
2022-11-01T12:44:35.766Z,78.46
2022-11-01T12:47:17.361Z,78.76
2022-11-01T12:49:49.354Z,78.90
2022-11-01T12:52:22.090Z,77.91
2022-11-01T12:54:58.538Z,77.55
2022-11-01T12:57:29.309Z,78.02
2022-11-01T12:59:57.764Z,77.74
2022-11-01T13:02:57.332Z,76.71
2022-11-01T13:05:29.880Z,75.58
2022-11-01T13:08:04.771Z,76.68
2022-11-01T13:10:35.317Z,75.13
2022-11-01T13:13:15.286Z,74.95
2022-11-01T13:15:53.496Z,75.39
2022-11-01T13:18:28.149Z,74.71
2022-11-01T13:21:00.863Z,74.73
2022-11-01T13:23:32.737Z,74.87
2022-11-01T13:26:04.026Z,74.86
2022-11-01T13:28:49.811Z,74.54
2022-11-01T13:31:30.206Z,75.50
2022-11-01T13:34:05.079Z,75.21
2022-11-01T13:36:38.162Z,75.97
2022-11-01T13:39:15.393Z,77.40
2022-11-01T13:41:50.140Z,76.09
2022-11-01T13:44:23.074Z,76.58
2022-11-01T13:47:18.952Z,76.50
2022-11-01T13:50:22.719Z,77.34
2022-11-01T13:52:55.965Z,76.09
2022-11-01T13:55:29.197Z,76.62
2022-11-01T13:57:57.370Z,76.28
2022-11-01T14:00:41.954Z,76.25
2022-11-01T14:03:27.806Z,75.58
2022-11-01T14:09:32.240Z,76.36
2022-11-01T14:12:12.459Z,76.27
2022-11-01T14:14:51.014Z,76.92
2022-11-01T14:17:52.369Z,76.46
2022-11-01T14:20:53.334Z,76.21
2022-11-01T14:24:01.776Z,76.40
2022-11-01T14:26:49.201Z,76.48
2022-11-01T14:29:17.373Z,76.35
2022-11-01T14:31:47.474Z,77.19
2022-11-01T14:34:30.068Z,76.94
2022-11-01T14:37:03.574Z,76.47
2022-11-01T14:39:37.470Z,76.51
2022-11-01T14:42:06.841Z,76.61
2022-11-01T14:44:38.216Z,76.73
2022-11-01T14:47:16.093Z,76.88
2022-11-01T14:49:45.884Z,77.01
2022-11-01T14:52:19.301Z,74.99
2022-11-01T14:54:50.416Z,77.07
2022-11-01T14:57:25.951Z,77.48
2022-11-01T14:59:54.657Z,77.59
2022-11-01T15:02:23.328Z,77.79
2022-11-01T15:04:59.087Z,77.20
2022-11-01T15:07:31.255Z,77.47
2022-11-01T15:10:03.218Z,77.35
2022-11-01T15:12:34.570Z,77.49
2022-11-01T15:15:02.790Z,76.90
2022-11-01T15:17:33.819Z,77.40
2022-11-01T15:20:13.070Z,77.34
2022-11-01T15:22:41.799Z,77.49
2022-11-01T15:25:19.956Z,77.38
2022-11-01T15:27:48.329Z,77.32
2022-11-01T15:30:21.694Z,77.67
2022-11-01T15:32:53.870Z,77.34
2022-11-01T15:35:26.042Z,77.34
2022-11-01T15:37:55.210Z,77.68
2022-11-01T15:40:29.513Z,77.62
2022-11-01T15:42:58.152Z,77.85
2022-11-01T15:45:30.040Z,77.87
2022-11-01T15:48:01.363Z,77.51
2022-11-01T15:50:35.408Z,77.97
2022-11-01T15:53:04.565Z,77.83
2022-11-01T15:55:35.385Z,77.55
2022-11-01T15:58:07.019Z,77.62
2022-11-01T16:00:38.453Z,77.72
2022-11-01T16:03:09.074Z,78.00
2022-11-01T16:05:44.670Z,77.78
2022-11-01T16:08:19.453Z,77.60
2022-11-01T16:10:47.660Z,77.88
2022-11-01T16:13:18.465Z,77.92
2022-11-01T16:16:00.460Z,78.16
2022-11-01T16:18:28.630Z,78.29
2022-11-01T16:21:06.375Z,78.03
2022-11-01T16:23:34.449Z,78.15
2022-11-01T16:26:04.391Z,77.72
2022-11-01T16:28:38.675Z,77.88
2022-11-01T16:31:19.389Z,78.25
2022-11-01T16:33:48.474Z,78.00
2022-11-01T16:36:41.472Z,76.23
2022-11-01T16:39:27.407Z,77.88
2022-11-01T16:41:55.504Z,77.98
2022-11-01T16:44:23.625Z,77.63
2022-11-01T16:46:52.008Z,78.04
2022-11-01T16:49:22.797Z,78.38
2022-11-01T16:51:53.255Z,78.06
2022-11-01T16:54:21.238Z,78.34
2022-11-01T16:56:51.483Z,78.13
2022-11-01T16:59:27.657Z,78.17
2022-11-01T17:01:58.308Z,78.27
2022-11-01T17:04:27.907Z,78.59
2022-11-01T17:06:59.030Z,78.39
2022-11-01T17:09:30.739Z,78.65
2022-11-01T17:11:58.764Z,78.79
2022-11-01T17:14:26.893Z,78.95
2022-11-01T17:16:56.297Z,79.06
2022-11-01T17:19:29.791Z,78.51
2022-11-01T17:22:00.057Z,79.09
2022-11-01T17:24:28.398Z,78.93
2022-11-01T17:27:00.106Z,78.76
2022-11-01T17:29:29.603Z,79.17
2022-11-01T17:31:57.620Z,79.33
2022-11-01T17:34:26.479Z,79.43
2022-11-01T17:36:54.649Z,79.42
2022-11-01T17:39:24.702Z,79.57
2022-11-01T17:41:52.708Z,79.56
2022-11-01T17:44:20.718Z,79.48
2022-11-01T17:46:48.782Z,79.34
2022-11-01T17:49:21.316Z,79.30
2022-11-01T17:51:54.243Z,79.57
2022-11-01T17:56:57.573Z,79.70
2022-11-01T17:59:25.610Z,79.49
2022-11-01T18:01:53.960Z,79.82
2022-11-01T18:04:22.109Z,79.70
2022-11-01T18:06:50.491Z,79.46
2022-11-01T18:09:20.948Z,79.52
2022-11-01T18:11:54.554Z,79.97
2022-11-01T18:14:32.835Z,79.66
2022-11-01T18:17:05.171Z,79.61
2022-11-01T18:19:46.771Z,79.69
2022-11-01T18:22:21.712Z,79.88
2022-11-01T18:24:53.273Z,79.60
2022-11-01T18:27:29.376Z,79.66
2022-11-01T18:29:57.491Z,80.06
2022-11-01T18:32:29.065Z,79.69
2022-11-01T18:35:01.057Z,79.79
2022-11-01T18:37:32.903Z,79.75
2022-11-01T18:40:04.611Z,79.75
2022-11-01T18:42:33.927Z,79.94
2022-11-01T18:45:15.919Z,79.82
2022-11-01T18:47:46.744Z,79.43
2022-11-01T18:50:21.032Z,80.10
2022-11-01T18:52:49.339Z,79.87
2022-11-01T18:55:17.498Z,79.75
2022-11-01T18:57:46.941Z,79.71
2022-11-01T19:00:15.829Z,80.18
2022-11-01T19:02:43.927Z,80.14
2022-11-01T19:05:17.167Z,80.17
2022-11-01T19:08:09.483Z,80.18
2022-11-01T19:10:35.368Z,80.22
2022-11-01T19:13:13.488Z,80.30
2022-11-01T19:15:41.495Z,80.05
2022-11-01T19:18:18.679Z,80.04
2022-11-01T19:20:49.917Z,80.21
2022-11-01T19:23:21.218Z,80.50
2022-11-01T19:25:50.115Z,80.40
2022-11-01T19:28:26.585Z,80.55
2022-11-01T19:30:56.022Z,80.61
2022-11-01T19:33:31.950Z,80.23
2022-11-01T19:36:03.641Z,80.46
2022-11-01T19:38:31.899Z,80.29
2022-11-01T19:40:59.974Z,80.25
2022-11-01T19:43:29.367Z,80.58
2022-11-01T19:45:59.617Z,80.29
2022-11-01T19:48:29.767Z,80.25
2022-11-01T19:50:57.819Z,80.40
2022-11-01T19:53:28.600Z,80.67
2022-11-01T19:55:59.626Z,80.46
2022-11-01T19:58:39.326Z,80.60
2022-11-01T20:01:34.666Z,80.85
2022-11-01T20:04:04.424Z,80.43
2022-11-01T20:06:37.358Z,80.87
2022-11-01T20:09:07.561Z,80.26
2022-11-01T20:11:36.003Z,80.52
2022-11-01T20:14:06.140Z,80.77
2022-11-01T20:16:34.279Z,80.60
2022-11-01T20:19:02.382Z,80.55
2022-11-01T20:21:30.408Z,80.63
2022-11-01T20:23:59.408Z,80.67
2022-11-01T20:26:27.457Z,80.82
2022-11-01T20:28:55.928Z,80.88
2022-11-01T20:31:26.400Z,80.74
2022-11-01T20:33:54.484Z,80.70
2022-11-01T20:36:23.147Z,80.82
2022-11-01T20:38:51.284Z,80.50
2022-11-01T20:41:20.094Z,80.54
2022-11-01T20:43:48.152Z,80.58
2022-11-01T20:46:16.199Z,80.61
2022-11-01T20:48:46.223Z,80.74
2022-11-01T20:51:14.422Z,80.95
2022-11-01T20:53:42.535Z,80.78
2022-11-01T20:56:10.687Z,80.56
2022-11-01T20:58:40.795Z,80.64
2022-11-01T21:01:14.531Z,80.51
2022-11-01T21:03:43.292Z,80.82
2022-11-01T21:06:17.770Z,80.94
2022-11-01T21:08:47.419Z,80.98
2022-11-01T21:11:21.729Z,80.97
2022-11-01T21:13:51.714Z,80.99
2022-11-01T21:16:25.061Z,80.83
2022-11-01T21:18:55.724Z,80.82
2022-11-01T21:21:32.239Z,80.71
2022-11-01T21:24:01.912Z,80.22
2022-11-01T21:26:33.855Z,80.59
2022-11-01T21:29:07.737Z,80.83
2022-11-01T21:31:39.774Z,80.79
2022-11-01T21:34:21.675Z,80.91
2022-11-01T21:36:52.223Z,80.79
2022-11-01T21:39:21.881Z,80.69
2022-11-01T21:41:51.005Z,80.47
2022-11-01T21:44:24.540Z,80.63
2022-11-01T21:46:54.108Z,80.41
2022-11-01T21:49:28.762Z,80.29
2022-11-01T21:52:00.474Z,80.39
2022-11-01T21:54:29.574Z,80.48
2022-11-01T21:56:58.201Z,80.76
2022-11-01T21:59:27.001Z,80.44
2022-11-01T22:01:56.475Z,80.30
2022-11-01T22:04:28.676Z,80.40
2022-11-01T22:06:58.726Z,80.54
2022-11-01T22:09:27.564Z,80.35
2022-11-01T22:11:55.689Z,80.29
2022-11-01T22:14:23.944Z,80.14
2022-11-01T22:16:51.998Z,80.29
2022-11-01T22:19:20.026Z,79.82
2022-11-01T22:21:48.066Z,79.92
2022-11-01T22:24:17.471Z,80.17
2022-11-01T22:26:45.515Z,80.20
2022-11-01T22:29:13.531Z,80.17
2022-11-01T22:31:43.394Z,80.18
2022-11-01T22:34:11.454Z,79.71
2022-11-01T22:36:41.460Z,79.44
2022-11-01T22:39:15.089Z,79.45
2022-11-01T22:41:44.559Z,79.45
2022-11-01T22:44:14.366Z,79.54
2022-11-01T22:46:46.607Z,79.40
2022-11-01T22:49:19.807Z,79.45
2022-11-01T22:51:50.339Z,79.60
2022-11-01T22:54:30.054Z,79.72
2022-11-01T22:57:04.013Z,79.03
2022-11-01T22:59:34.204Z,79.59
2022-11-01T23:02:17.890Z,79.53
2022-11-01T23:04:46.029Z,79.34
2022-11-01T23:07:23.789Z,79.34
2022-11-01T23:09:53.723Z,79.33
2022-11-01T23:12:42.348Z,79.18
2022-11-01T23:15:30.833Z,78.81
2022-11-01T23:18:03.524Z,79.30
2022-11-01T23:20:31.624Z,78.78
2022-11-01T23:23:00.942Z,79.09
2022-11-01T23:25:30.257Z,79.08
2022-11-01T23:27:59.874Z,78.59
2022-11-01T23:30:28.037Z,77.64
2022-11-01T23:32:58.098Z,78.70
2022-11-01T23:35:26.169Z,78.94
2022-11-01T23:37:54.750Z,78.90
2022-11-01T23:40:23.104Z,78.53
2022-11-01T23:42:51.528Z,78.85
2022-11-01T23:45:28.847Z,78.37
2022-11-01T23:47:57.721Z,78.81
2022-11-01T23:50:30.476Z,78.79
2022-11-01T23:53:00.610Z,78.84
2022-11-01T23:55:30.644Z,78.87
2022-11-01T23:58:00.964Z,78.87
